createdAt,value
2023-05-05T00:00:00.000Z,11.3
2023-05-05T00:15:00.000Z,11.37
2023-05-05T00:30:00.000Z,11.23
2023-05-05T00:45:00.000Z,11.1
2023-05-05T01:00:00.000Z,10.8
2023-05-05T01:15:00.000Z,10.62
2023-05-05T01:30:00.000Z,10.5
2023-05-05T01:45:00.000Z,10.41
2023-05-05T02:00:00.000Z,10.2
2023-05-05T02:15:00.000Z,10.01
2023-05-05T02:30:00.000Z,9.78
2023-05-05T02:45:00.000Z,9.71
2023-05-05T03:00:00.000Z,9.67
2023-05-05T03:15:00.000Z,9.49
2023-05-05T03:30:00.000Z,9.38
2023-05-05T03:45:00.000Z,9.24
2023-05-05T04:00:00.000Z,9.27
2023-05-05T04:15:00.000Z,9.65
2023-05-05T04:30:00.000Z,10.91
2023-05-05T04:45:00.000Z,12.82
2023-05-05T05:00:00.000Z,13.85
2023-05-05T05:15:00.000Z,14.51
2023-05-05T05:30:00.000Z,14.95
2023-05-05T05:45:00.000Z,15.53
2023-05-05T06:00:00.000Z,16.21
2023-05-05T06:15:00.000Z,16.9
2023-05-05T06:30:00.000Z,18.08
2023-05-05T06:45:00.000Z,20.12
2023-05-05T07:00:00.000Z,23.76
2023-05-05T07:15:00.000Z,25.34
2023-05-05T07:30:00.000Z,26.44
2023-05-05T07:45:00.000Z,26.72
2023-05-05T08:00:00.000Z,28.01
2023-05-05T08:15:00.000Z,28.43
2023-05-05T08:30:00.000Z,28.99
2023-05-05T08:45:00.000Z,29.29
2023-05-05T09:00:00.000Z,29.93
2023-05-05T09:15:00.000Z,29.17
2023-05-05T09:30:00.000Z,28.24
2023-05-05T09:45:00.000Z,28.66
2023-05-05T10:00:00.000Z,29.2
2023-05-05T10:15:00.000Z,28.88
2023-05-05T10:30:00.000Z,28.82
2023-05-05T10:45:00.000Z,28.82
2023-05-05T11:00:00.000Z,28.49
2023-05-05T11:15:00.000Z,28.81
2023-05-05T11:30:00.000Z,28.15
2023-05-05T11:45:00.000Z,28.47
2023-05-05T12:00:00.000Z,27.97
2023-05-05T12:15:00.000Z,27
2023-05-05T12:30:00.000Z,26.64
2023-05-05T12:45:00.000Z,26.8
2023-05-05T13:00:00.000Z,26.21
2023-05-05T13:15:00.000Z,25.72
2023-05-05T13:30:00.000Z,25.73
2023-05-05T13:45:00.000Z,26.08
2023-05-05T14:00:00.000Z,26.15
2023-05-05T14:15:00.000Z,25.9
2023-05-05T14:30:00.000Z,25.85
2023-05-05T14:45:00.000Z,26.06
2023-05-05T15:00:00.000Z,25.65
2023-05-05T15:15:00.000Z,25.53
2023-05-05T15:30:00.000Z,25.31
2023-05-05T15:45:00.000Z,25.24
2023-05-05T16:00:00.000Z,24.83
2023-05-05T16:15:00.000Z,24.65
2023-05-05T16:30:00.000Z,24.54
2023-05-05T16:45:00.000Z,24.36
2023-05-05T17:00:00.000Z,23.94
2023-05-05T17:15:00.000Z,23.5
2023-05-05T17:30:00.000Z,23.09
2023-05-05T17:45:00.000Z,22.64
2023-05-05T18:00:00.000Z,22.08
2023-05-05T18:15:00.000Z,21.49
2023-05-05T18:30:00.000Z,20.93
2023-05-05T18:45:00.000Z,20.6
2023-05-05T19:00:00.000Z,20.33
2023-05-05T19:15:00.000Z,20.16
2023-05-05T19:30:00.000Z,20.04
2023-05-05T19:45:00.000Z,19.84
2023-05-05T20:00:00.000Z,19.55
2023-05-05T20:15:00.000Z,19.45
2023-05-05T20:30:00.000Z,19.15
2023-05-05T20:45:00.000Z,18.02
2023-05-05T21:00:00.000Z,16.23
2023-05-05T21:15:00.000Z,15.4
2023-05-05T21:30:00.000Z,15.37
2023-05-05T21:45:00.000Z,15.31
2023-05-05T22:00:00.000Z,15
2023-05-05T22:15:00.000Z,14.71
2023-05-05T22:30:00.000Z,14.65
2023-05-05T22:45:00.000Z,14.7
2023-05-05T23:00:00.000Z,14.77
2023-05-05T23:15:00.000Z,14.72
2023-05-05T23:30:00.000Z,14.45
2023-05-05T23:45:00.000Z,14.38
